<?xml version="1.0" encoding="UTF-8" standalone="no" ?>
<gpx xmlns="http://www.topografix.com/GPX/1/1" xmlns:xsi="http://www.w3.org/2001/XMLSchema-instance" xsi:schemaLocation="http://www.topografix.com/GPX/1/1 http://www.topografix.com/GPX/1/1/gpx.xsd" version="1.1" creator="VisuGPX - https://www.visugpx.com">
  <metadata>
    <name>RSPFY-bois de Rochefort-court</name>
    <desc><![CDATA[marche nordique dans le bois de Rochefort en partant du poteau de la Poterie en passant par le Fonds de Bullion, le carrefour des Jumelles, le point de vue sur la vallée (161m).et le carrefour Fanny.]]></desc>
  </metadata>
  <trk>
    <name><![CDATA[2021-12-07 09:09]]></name>
    <desc><![CDATA[<p>Heure de départ: 09:09 7 déc. 2021<br/>Heure d'arrivée: 11:37 7 déc. 2021<br/>Distance: 10,5 km (02:28)<br/>Temps déplacement: 01:53<br/>Vitesse moyenne: 4,24 km/h<br/>Vitesse moyenne mouv.: 5,53 km/h<br/>Vitesse Max.: 8,74 km/h<br/>Altitude minimale: 103 m<br/>Altitude maximale: 151 m<br/>Vitesse de montée: 229,9 m/h<br/>Vitesse de descente: -225,5 m/h<br/>Gain d'altitude: 263 m<br/>Perte d'altitude: -259 m<br/>Temps de montée: 01:08<br/>Temps de descente: 01:09<br/></p><hr align="center" width="480" style="height: 2px; width: 517px"/>]]></desc>
    <trkseg>
      <trkpt lat="48.60673" lon="1.94968">
        <ele>111</ele>
        <time>2021-12-07T08:09:37Z</time>
      </trkpt>
      <trkpt lat="48.60664" lon="1.94993">
        <ele>111</ele>
        <time>2021-12-07T08:10:47Z</time>
      </trkpt>
      <trkpt lat="48.60653" lon="1.95017">
        <ele>111</ele>
        <time>2021-12-07T08:10:58Z</time>
      </trkpt>
      <trkpt lat="48.60641" lon="1.95037">
        <ele>111</ele>
        <time>2021-12-07T08:11:08Z</time>
      </trkpt>
      <trkpt lat="48.6063" lon="1.9506">
        <ele>111</ele>
        <time>2021-12-07T08:11:20Z</time>
      </trkpt>
      <trkpt lat="48.60621" lon="1.95086">
        <ele>111</ele>
        <time>2021-12-07T08:11:33Z</time>
      </trkpt>
      <trkpt lat="48.60611" lon="1.95109">
        <ele>111</ele>
        <time>2021-12-07T08:11:45Z</time>
      </trkpt>
      <trkpt lat="48.60597" lon="1.95128">
        <ele>111</ele>
        <time>2021-12-07T08:11:58Z</time>
      </trkpt>
      <trkpt lat="48.60587" lon="1.95152">
        <ele>111</ele>
        <time>2021-12-07T08:12:10Z</time>
      </trkpt>
      <trkpt lat="48.60577" lon="1.95176">
        <ele>111</ele>
        <time>2021-12-07T08:12:25Z</time>
      </trkpt>
      <trkpt lat="48.60577" lon="1.95204">
        <ele>111</ele>
        <time>2021-12-07T08:12:39Z</time>
      </trkpt>
      <trkpt lat="48.60569" lon="1.9523">
        <ele>111</ele>
        <time>2021-12-07T08:12:51Z</time>
      </trkpt>
      <trkpt lat="48.60567" lon="1.95258">
        <ele>110.9</ele>
        <time>2021-12-07T08:13:02Z</time>
      </trkpt>
      <trkpt lat="48.6057" lon="1.95286">
        <ele>110.3</ele>
        <time>2021-12-07T08:13:13Z</time>
      </trkpt>
      <trkpt lat="48.60579" lon="1.9531">
        <ele>110</ele>
        <time>2021-12-07T08:13:24Z</time>
      </trkpt>
      <trkpt lat="48.60596" lon="1.95322">
        <ele>110</ele>
        <time>2021-12-07T08:13:35Z</time>
      </trkpt>
      <trkpt lat="48.60599" lon="1.95349">
        <ele>109.8</ele>
        <time>2021-12-07T08:13:46Z</time>
      </trkpt>
      <trkpt lat="48.60596" lon="1.95376">
        <ele>109.2</ele>
        <time>2021-12-07T08:13:54Z</time>
      </trkpt>
      <trkpt lat="48.606" lon="1.95403">
        <ele>109</ele>
        <time>2021-12-07T08:14:05Z</time>
      </trkpt>
      <trkpt lat="48.60612" lon="1.95424">
        <ele>109</ele>
        <time>2021-12-07T08:14:17Z</time>
      </trkpt>
      <trkpt lat="48.60611" lon="1.95454">
        <ele>109</ele>
        <time>2021-12-07T08:14:28Z</time>
      </trkpt>
      <trkpt lat="48.60604" lon="1.95481">
        <ele>109</ele>
        <time>2021-12-07T08:14:41Z</time>
      </trkpt>
      <trkpt lat="48.60603" lon="1.95509">
        <ele>109</ele>
        <time>2021-12-07T08:14:53Z</time>
      </trkpt>
      <trkpt lat="48.60605" lon="1.95536">
        <ele>108.8</ele>
        <time>2021-12-07T08:15:04Z</time>
      </trkpt>
      <trkpt lat="48.60607" lon="1.95564">
        <ele>108.2</ele>
        <time>2021-12-07T08:15:16Z</time>
      </trkpt>
      <trkpt lat="48.6062" lon="1.95584">
        <ele>108</ele>
        <time>2021-12-07T08:15:28Z</time>
      </trkpt>
      <trkpt lat="48.60635" lon="1.95601">
        <ele>108</ele>
        <time>2021-12-07T08:15:40Z</time>
      </trkpt>
      <trkpt lat="48.60646" lon="1.95623">
        <ele>108</ele>
        <time>2021-12-07T08:15:51Z</time>
      </trkpt>
      <trkpt lat="48.60658" lon="1.95644">
        <ele>108</ele>
        <time>2021-12-07T08:16:03Z</time>
      </trkpt>
      <trkpt lat="48.60676" lon="1.95652">
        <ele>107.8</ele>
        <time>2021-12-07T08:16:15Z</time>
      </trkpt>
      <trkpt lat="48.60689" lon="1.95671">
        <ele>108</ele>
        <time>2021-12-07T08:16:28Z</time>
      </trkpt>
      <trkpt lat="48.60687" lon="1.95698">
        <ele>108</ele>
        <time>2021-12-07T08:16:43Z</time>
      </trkpt>
      <trkpt lat="48.60692" lon="1.95725">
        <ele>108</ele>
        <time>2021-12-07T08:16:56Z</time>
      </trkpt>
      <trkpt lat="48.607" lon="1.95752">
        <ele>107.8</ele>
        <time>2021-12-07T08:17:07Z</time>
      </trkpt>
      <trkpt lat="48.60701" lon="1.9578">
        <ele>107.7</ele>
        <time>2021-12-07T08:17:21Z</time>
      </trkpt>
      <trkpt lat="48.60702" lon="1.95808">
        <ele>107</ele>
        <time>2021-12-07T08:17:37Z</time>
      </trkpt>
      <trkpt lat="48.60704" lon="1.95836">
        <ele>106.7</ele>
        <time>2021-12-07T08:17:49Z</time>
      </trkpt>
      <trkpt lat="48.60701" lon="1.95864">
        <ele>106.8</ele>
        <time>2021-12-07T08:18:05Z</time>
      </trkpt>
      <trkpt lat="48.6069" lon="1.95887">
        <ele>107</ele>
        <time>2021-12-07T08:18:22Z</time>
      </trkpt>
      <trkpt lat="48.60675" lon="1.95907">
        <ele>107</ele>
        <time>2021-12-07T08:18:36Z</time>
      </trkpt>
      <trkpt lat="48.60673" lon="1.95935">
        <ele>107</ele>
        <time>2021-12-07T08:20:03Z</time>
      </trkpt>
      <trkpt lat="48.60675" lon="1.95963">
        <ele>107</ele>
        <time>2021-12-07T08:20:19Z</time>
      </trkpt>
      <trkpt lat="48.60662" lon="1.9598">
        <ele>107.6</ele>
        <time>2021-12-07T08:20:38Z</time>
      </trkpt>
      <trkpt lat="48.60647" lon="1.95999">
        <ele>108.9</ele>
        <time>2021-12-07T08:20:52Z</time>
      </trkpt>
      <trkpt lat="48.60629" lon="1.95992">
        <ele>108.5</ele>
        <time>2021-12-07T08:21:05Z</time>
      </trkpt>
      <trkpt lat="48.60611" lon="1.95983">
        <ele>107.7</ele>
        <time>2021-12-07T08:21:18Z</time>
      </trkpt>
      <trkpt lat="48.60594" lon="1.9597">
        <ele>107.6</ele>
        <time>2021-12-07T08:21:30Z</time>
      </trkpt>
      <trkpt lat="48.60577" lon="1.95957">
        <ele>108.5</ele>
        <time>2021-12-07T08:21:43Z</time>
      </trkpt>
      <trkpt lat="48.60558" lon="1.95947">
        <ele>109.1</ele>
        <time>2021-12-07T08:21:55Z</time>
      </trkpt>
      <trkpt lat="48.6054" lon="1.95937">
        <ele>109.8</ele>
        <time>2021-12-07T08:22:08Z</time>
      </trkpt>
      <trkpt lat="48.60526" lon="1.9592">
        <ele>110.2</ele>
        <time>2021-12-07T08:22:18Z</time>
      </trkpt>
      <trkpt lat="48.6051" lon="1.95904">
        <ele>109.8</ele>
        <time>2021-12-07T08:22:30Z</time>
      </trkpt>
      <trkpt lat="48.60493" lon="1.95891">
        <ele>109.6</ele>
        <time>2021-12-07T08:22:42Z</time>
      </trkpt>
      <trkpt lat="48.60476" lon="1.95878">
        <ele>110</ele>
        <time>2021-12-07T08:22:54Z</time>
      </trkpt>
      <trkpt lat="48.60457" lon="1.95872">
        <ele>109.8</ele>
        <time>2021-12-07T08:23:08Z</time>
      </trkpt>
      <trkpt lat="48.60439" lon="1.95871">
        <ele>109.9</ele>
        <time>2021-12-07T08:23:20Z</time>
      </trkpt>
      <trkpt lat="48.6042" lon="1.95873">
        <ele>110.7</ele>
        <time>2021-12-07T08:23:34Z</time>
      </trkpt>
      <trkpt lat="48.60403" lon="1.95869">
        <ele>110.9</ele>
        <time>2021-12-07T08:23:48Z</time>
      </trkpt>
      <trkpt lat="48.60384" lon="1.9586">
        <ele>110.9</ele>
        <time>2021-12-07T08:24:02Z</time>
      </trkpt>
      <trkpt lat="48.60366" lon="1.95853">
        <ele>110.7</ele>
        <time>2021-12-07T08:24:16Z</time>
      </trkpt>
      <trkpt lat="48.60348" lon="1.95851">
        <ele>111.1</ele>
        <time>2021-12-07T08:24:28Z</time>
      </trkpt>
      <trkpt lat="48.6033" lon="1.9584">
        <ele>111.2</ele>
        <time>2021-12-07T08:24:41Z</time>
      </trkpt>
      <trkpt lat="48.60313" lon="1.95828">
        <ele>110.9</ele>
        <time>2021-12-07T08:24:54Z</time>
      </trkpt>
      <trkpt lat="48.60298" lon="1.95812">
        <ele>111.1</ele>
        <time>2021-12-07T08:25:08Z</time>
      </trkpt>
      <trkpt lat="48.60281" lon="1.95803">
        <ele>111</ele>
        <time>2021-12-07T08:25:23Z</time>
      </trkpt>
      <trkpt lat="48.60266" lon="1.95821">
        <ele>112</ele>
        <time>2021-12-07T08:27:20Z</time>
      </trkpt>
      <trkpt lat="48.60252" lon="1.95841">
        <ele>112.9</ele>
        <time>2021-12-07T08:27:37Z</time>
      </trkpt>
      <trkpt lat="48.60241" lon="1.95864">
        <ele>113.4</ele>
        <time>2021-12-07T08:27:52Z</time>
      </trkpt>
      <trkpt lat="48.6023" lon="1.95885">
        <ele>114.6</ele>
        <time>2021-12-07T08:28:07Z</time>
      </trkpt>
      <trkpt lat="48.60218" lon="1.95908">
        <ele>116.5</ele>
        <time>2021-12-07T08:28:19Z</time>
      </trkpt>
      <trkpt lat="48.60207" lon="1.95932">
        <ele>119.2</ele>
        <time>2021-12-07T08:28:32Z</time>
      </trkpt>
      <trkpt lat="48.60197" lon="1.95957">
        <ele>121.9</ele>
        <time>2021-12-07T08:28:43Z</time>
      </trkpt>
      <trkpt lat="48.60187" lon="1.9598">
        <ele>123.5</ele>
        <time>2021-12-07T08:28:55Z</time>
      </trkpt>
      <trkpt lat="48.60175" lon="1.96001">
        <ele>125</ele>
        <time>2021-12-07T08:29:09Z</time>
      </trkpt>
      <trkpt lat="48.60162" lon="1.9602">
        <ele>124.2</ele>
        <time>2021-12-07T08:29:22Z</time>
      </trkpt>
      <trkpt lat="48.60156" lon="1.96046">
        <ele>124.6</ele>
        <time>2021-12-07T08:29:42Z</time>
      </trkpt>
      <trkpt lat="48.60154" lon="1.96074">
        <ele>125.6</ele>
        <time>2021-12-07T08:30:03Z</time>
      </trkpt>
      <trkpt lat="48.60156" lon="1.96102">
        <ele>126.9</ele>
        <time>2021-12-07T08:30:24Z</time>
      </trkpt>
      <trkpt lat="48.6016" lon="1.9613">
        <ele>128.2</ele>
        <time>2021-12-07T08:30:37Z</time>
      </trkpt>
      <trkpt lat="48.60155" lon="1.96159">
        <ele>128.8</ele>
        <time>2021-12-07T08:30:51Z</time>
      </trkpt>
      <trkpt lat="48.60149" lon="1.96185">
        <ele>129.2</ele>
        <time>2021-12-07T08:31:05Z</time>
      </trkpt>
      <trkpt lat="48.6015" lon="1.96213">
        <ele>130.4</ele>
        <time>2021-12-07T08:31:16Z</time>
      </trkpt>
      <trkpt lat="48.60162" lon="1.96236">
        <ele>132.6</ele>
        <time>2021-12-07T08:31:30Z</time>
      </trkpt>
      <trkpt lat="48.60178" lon="1.96252">
        <ele>135.6</ele>
        <time>2021-12-07T08:31:44Z</time>
      </trkpt>
      <trkpt lat="48.60192" lon="1.96268">
        <ele>137.1</ele>
        <time>2021-12-07T08:31:58Z</time>
      </trkpt>
      <trkpt lat="48.60207" lon="1.96287">
        <ele>138.3</ele>
        <time>2021-12-07T08:32:13Z</time>
      </trkpt>
      <trkpt lat="48.60225" lon="1.96297">
        <ele>140</ele>
        <time>2021-12-07T08:32:23Z</time>
      </trkpt>
      <trkpt lat="48.60241" lon="1.96309">
        <ele>139.9</ele>
        <time>2021-12-07T08:32:36Z</time>
      </trkpt>
      <trkpt lat="48.60255" lon="1.96326">
        <ele>139.3</ele>
        <time>2021-12-07T08:32:51Z</time>
      </trkpt>
      <trkpt lat="48.60271" lon="1.96345">
        <ele>138.6</ele>
        <time>2021-12-07T08:33:03Z</time>
      </trkpt>
      <trkpt lat="48.60287" lon="1.96358">
        <ele>138.7</ele>
        <time>2021-12-07T08:33:14Z</time>
      </trkpt>
      <trkpt lat="48.60302" lon="1.96375">
        <ele>139.7</ele>
        <time>2021-12-07T08:33:26Z</time>
      </trkpt>
      <trkpt lat="48.60293" lon="1.96401">
        <ele>139.3</ele>
        <time>2021-12-07T08:34:35Z</time>
      </trkpt>
      <trkpt lat="48.60283" lon="1.96425">
        <ele>138.6</ele>
        <time>2021-12-07T08:34:49Z</time>
      </trkpt>
      <trkpt lat="48.60282" lon="1.96453">
        <ele>138.5</ele>
        <time>2021-12-07T08:35:01Z</time>
      </trkpt>
      <trkpt lat="48.60291" lon="1.96479">
        <ele>139.3</ele>
        <time>2021-12-07T08:35:15Z</time>
      </trkpt>
      <trkpt lat="48.60297" lon="1.96507">
        <ele>139.6</ele>
        <time>2021-12-07T08:35:32Z</time>
      </trkpt>
      <trkpt lat="48.60299" lon="1.96535">
        <ele>139.2</ele>
        <time>2021-12-07T08:35:45Z</time>
      </trkpt>
      <trkpt lat="48.60301" lon="1.96564">
        <ele>139</ele>
        <time>2021-12-07T08:35:57Z</time>
      </trkpt>
      <trkpt lat="48.603" lon="1.96591">
        <ele>138.2</ele>
        <time>2021-12-07T08:36:09Z</time>
      </trkpt>
      <trkpt lat="48.60299" lon="1.9662">
        <ele>137.7</ele>
        <time>2021-12-07T08:36:21Z</time>
      </trkpt>
      <trkpt lat="48.60304" lon="1.96648">
        <ele>137.5</ele>
        <time>2021-12-07T08:36:33Z</time>
      </trkpt>
      <trkpt lat="48.60312" lon="1.96674">
        <ele>137.6</ele>
        <time>2021-12-07T08:36:46Z</time>
      </trkpt>
      <trkpt lat="48.60322" lon="1.96696">
        <ele>138.4</ele>
        <time>2021-12-07T08:37:00Z</time>
      </trkpt>
      <trkpt lat="48.60333" lon="1.96718">
        <ele>140</ele>
        <time>2021-12-07T08:37:16Z</time>
      </trkpt>
      <trkpt lat="48.60351" lon="1.96725">
        <ele>141.2</ele>
        <time>2021-12-07T08:37:31Z</time>
      </trkpt>
      <trkpt lat="48.60364" lon="1.96744">
        <ele>142.1</ele>
        <time>2021-12-07T08:37:43Z</time>
      </trkpt>
      <trkpt lat="48.60377" lon="1.96764">
        <ele>142.1</ele>
        <time>2021-12-07T08:37:54Z</time>
      </trkpt>
      <trkpt lat="48.60392" lon="1.96782">
        <ele>142.1</ele>
        <time>2021-12-07T08:38:07Z</time>
      </trkpt>
      <trkpt lat="48.60407" lon="1.96799">
        <ele>142.1</ele>
        <time>2021-12-07T08:40:39Z</time>
      </trkpt>
      <trkpt lat="48.60423" lon="1.96815">
        <ele>141.8</ele>
        <time>2021-12-07T08:40:51Z</time>
      </trkpt>
      <trkpt lat="48.6044" lon="1.9683">
        <ele>141.2</ele>
        <time>2021-12-07T08:41:06Z</time>
      </trkpt>
      <trkpt lat="48.60456" lon="1.96844">
        <ele>139.5</ele>
        <time>2021-12-07T08:41:16Z</time>
      </trkpt>
      <trkpt lat="48.60471" lon="1.9686">
        <ele>138.1</ele>
        <time>2021-12-07T08:41:27Z</time>
      </trkpt>
      <trkpt lat="48.60487" lon="1.96873">
        <ele>135.8</ele>
        <time>2021-12-07T08:41:38Z</time>
      </trkpt>
      <trkpt lat="48.60503" lon="1.96886">
        <ele>133.4</ele>
        <time>2021-12-07T08:41:49Z</time>
      </trkpt>
      <trkpt lat="48.60518" lon="1.96902">
        <ele>130.7</ele>
        <time>2021-12-07T08:42:01Z</time>
      </trkpt>
      <trkpt lat="48.60533" lon="1.96918">
        <ele>128.2</ele>
        <time>2021-12-07T08:42:12Z</time>
      </trkpt>
      <trkpt lat="48.6055" lon="1.96933">
        <ele>125.9</ele>
        <time>2021-12-07T08:42:25Z</time>
      </trkpt>
      <trkpt lat="48.60567" lon="1.96943">
        <ele>123.4</ele>
        <time>2021-12-07T08:42:37Z</time>
      </trkpt>
      <trkpt lat="48.60581" lon="1.96964">
        <ele>120.6</ele>
        <time>2021-12-07T08:42:54Z</time>
      </trkpt>
      <trkpt lat="48.60595" lon="1.96982">
        <ele>118.8</ele>
        <time>2021-12-07T08:43:09Z</time>
      </trkpt>
      <trkpt lat="48.6061" lon="1.96996">
        <ele>117.2</ele>
        <time>2021-12-07T08:43:20Z</time>
      </trkpt>
      <trkpt lat="48.60626" lon="1.9701">
        <ele>116.3</ele>
        <time>2021-12-07T08:43:30Z</time>
      </trkpt>
      <trkpt lat="48.60641" lon="1.97026">
        <ele>115</ele>
        <time>2021-12-07T08:43:41Z</time>
      </trkpt>
      <trkpt lat="48.60656" lon="1.97043">
        <ele>114</ele>
        <time>2021-12-07T08:43:55Z</time>
      </trkpt>
      <trkpt lat="48.60667" lon="1.97065">
        <ele>113</ele>
        <time>2021-12-07T08:45:20Z</time>
      </trkpt>
      <trkpt lat="48.60684" lon="1.97079">
        <ele>111.9</ele>
        <time>2021-12-07T08:45:32Z</time>
      </trkpt>
      <trkpt lat="48.60698" lon="1.97096">
        <ele>110.4</ele>
        <time>2021-12-07T08:45:44Z</time>
      </trkpt>
      <trkpt lat="48.6071" lon="1.97117">
        <ele>109.5</ele>
        <time>2021-12-07T08:45:56Z</time>
      </trkpt>
      <trkpt lat="48.6071" lon="1.97145">
        <ele>109.2</ele>
        <time>2021-12-07T08:46:10Z</time>
      </trkpt>
      <trkpt lat="48.60713" lon="1.97174">
        <ele>108.3</ele>
        <time>2021-12-07T08:46:25Z</time>
      </trkpt>
      <trkpt lat="48.60705" lon="1.97198">
        <ele>108.6</ele>
        <time>2021-12-07T08:46:37Z</time>
      </trkpt>
      <trkpt lat="48.60697" lon="1.97224">
        <ele>108.9</ele>
        <time>2021-12-07T08:46:50Z</time>
      </trkpt>
      <trkpt lat="48.60699" lon="1.97251">
        <ele>108.8</ele>
        <time>2021-12-07T08:47:05Z</time>
      </trkpt>
      <trkpt lat="48.60706" lon="1.97279">
        <ele>107.6</ele>
        <time>2021-12-07T08:47:20Z</time>
      </trkpt>
      <trkpt lat="48.60714" lon="1.97304">
        <ele>107.3</ele>
        <time>2021-12-07T08:47:31Z</time>
      </trkpt>
      <trkpt lat="48.60719" lon="1.97331">
        <ele>107.1</ele>
        <time>2021-12-07T08:47:44Z</time>
      </trkpt>
      <trkpt lat="48.60723" lon="1.97359">
        <ele>106.1</ele>
        <time>2021-12-07T08:47:56Z</time>
      </trkpt>
      <trkpt lat="48.60731" lon="1.97385">
        <ele>105.7</ele>
        <time>2021-12-07T08:48:10Z</time>
      </trkpt>
      <trkpt lat="48.60746" lon="1.97404">
        <ele>105.2</ele>
        <time>2021-12-07T08:48:22Z</time>
      </trkpt>
      <trkpt lat="48.6076" lon="1.97421">
        <ele>105</ele>
        <time>2021-12-07T08:48:34Z</time>
      </trkpt>
      <trkpt lat="48.60751" lon="1.97445">
        <ele>105</ele>
        <time>2021-12-07T08:50:16Z</time>
      </trkpt>
      <trkpt lat="48.60733" lon="1.97453">
        <ele>105.6</ele>
        <time>2021-12-07T08:50:29Z</time>
      </trkpt>
      <trkpt lat="48.60716" lon="1.97465">
        <ele>106</ele>
        <time>2021-12-07T08:50:42Z</time>
      </trkpt>
      <trkpt lat="48.60698" lon="1.97469">
        <ele>106</ele>
        <time>2021-12-07T08:50:56Z</time>
      </trkpt>
      <trkpt lat="48.60679" lon="1.97463">
        <ele>106.6</ele>
        <time>2021-12-07T08:51:12Z</time>
      </trkpt>
      <trkpt lat="48.60663" lon="1.97449">
        <ele>107.3</ele>
        <time>2021-12-07T08:51:25Z</time>
      </trkpt>
      <trkpt lat="48.60648" lon="1.97431">
        <ele>108.3</ele>
        <time>2021-12-07T08:51:39Z</time>
      </trkpt>
      <trkpt lat="48.60632" lon="1.97414">
        <ele>109.3</ele>
        <time>2021-12-07T08:51:51Z</time>
      </trkpt>
      <trkpt lat="48.60619" lon="1.97392">
        <ele>109.7</ele>
        <time>2021-12-07T08:52:02Z</time>
      </trkpt>
      <trkpt lat="48.60606" lon="1.97371">
        <ele>110.7</ele>
        <time>2021-12-07T08:52:13Z</time>
      </trkpt>
      <trkpt lat="48.6059" lon="1.97354">
        <ele>111.2</ele>
        <time>2021-12-07T08:52:30Z</time>
      </trkpt>
      <trkpt lat="48.60575" lon="1.97336">
        <ele>111.9</ele>
        <time>2021-12-07T08:52:44Z</time>
      </trkpt>
      <trkpt lat="48.6056" lon="1.9732">
        <ele>112</ele>
        <time>2021-12-07T08:52:57Z</time>
      </trkpt>
      <trkpt lat="48.60543" lon="1.97307">
        <ele>112.5</ele>
        <time>2021-12-07T08:53:12Z</time>
      </trkpt>
      <trkpt lat="48.60526" lon="1.97293">
        <ele>113</ele>
        <time>2021-12-07T08:53:25Z</time>
      </trkpt>
      <trkpt lat="48.60508" lon="1.97285">
        <ele>113.5</ele>
        <time>2021-12-07T08:53:38Z</time>
      </trkpt>
      <trkpt lat="48.6049" lon="1.97278">
        <ele>114</ele>
        <time>2021-12-07T08:53:49Z</time>
      </trkpt>
      <trkpt lat="48.60471" lon="1.9727">
        <ele>114.3</ele>
        <time>2021-12-07T08:54:01Z</time>
      </trkpt>
      <trkpt lat="48.60455" lon="1.97259">
        <ele>115.3</ele>
        <time>2021-12-07T08:54:13Z</time>
      </trkpt>
      <trkpt lat="48.60439" lon="1.97243">
        <ele>116.3</ele>
        <time>2021-12-07T08:54:26Z</time>
      </trkpt>
      <trkpt lat="48.60424" lon="1.97227">
        <ele>116.8</ele>
        <time>2021-12-07T08:54:39Z</time>
      </trkpt>
      <trkpt lat="48.60409" lon="1.97209">
        <ele>117.8</ele>
        <time>2021-12-07T08:54:54Z</time>
      </trkpt>
      <trkpt lat="48.60394" lon="1.97191">
        <ele>118.5</ele>
        <time>2021-12-07T08:55:06Z</time>
      </trkpt>
      <trkpt lat="48.6038" lon="1.97175">
        <ele>118.9</ele>
        <time>2021-12-07T08:55:20Z</time>
      </trkpt>
      <trkpt lat="48.60365" lon="1.97157">
        <ele>118.7</ele>
        <time>2021-12-07T08:55:32Z</time>
      </trkpt>
      <trkpt lat="48.60353" lon="1.97136">
        <ele>119.1</ele>
        <time>2021-12-07T08:55:43Z</time>
      </trkpt>
      <trkpt lat="48.60338" lon="1.97118">
        <ele>119.3</ele>
        <time>2021-12-07T08:55:56Z</time>
      </trkpt>
      <trkpt lat="48.60326" lon="1.97097">
        <ele>119.7</ele>
        <time>2021-12-07T08:56:10Z</time>
      </trkpt>
      <trkpt lat="48.60315" lon="1.97073">
        <ele>120.1</ele>
        <time>2021-12-07T08:56:24Z</time>
      </trkpt>
      <trkpt lat="48.60306" lon="1.97047">
        <ele>120</ele>
        <time>2021-12-07T08:56:36Z</time>
      </trkpt>
      <trkpt lat="48.60288" lon="1.97039">
        <ele>120.9</ele>
        <time>2021-12-07T08:59:56Z</time>
      </trkpt>
      <trkpt lat="48.60275" lon="1.97059">
        <ele>122.2</ele>
        <time>2021-12-07T09:00:13Z</time>
      </trkpt>
      <trkpt lat="48.60265" lon="1.97083">
        <ele>122.9</ele>
        <time>2021-12-07T09:00:25Z</time>
      </trkpt>
      <trkpt lat="48.60271" lon="1.97109">
        <ele>123.4</ele>
        <time>2021-12-07T09:00:43Z</time>
      </trkpt>
      <trkpt lat="48.60282" lon="1.97132">
        <ele>122.6</ele>
        <time>2021-12-07T09:00:55Z</time>
      </trkpt>
      <trkpt lat="48.60286" lon="1.9716">
        <ele>122.4</ele>
        <time>2021-12-07T09:01:09Z</time>
      </trkpt>
      <trkpt lat="48.60299" lon="1.97184">
        <ele>121.5</ele>
        <time>2021-12-07T09:01:20Z</time>
      </trkpt>
      <trkpt lat="48.60313" lon="1.97201">
        <ele>120.5</ele>
        <time>2021-12-07T09:01:30Z</time>
      </trkpt>
      <trkpt lat="48.60324" lon="1.97225">
        <ele>119.7</ele>
        <time>2021-12-07T09:01:46Z</time>
      </trkpt>
      <trkpt lat="48.60334" lon="1.97249">
        <ele>118.9</ele>
        <time>2021-12-07T09:02:00Z</time>
      </trkpt>
      <trkpt lat="48.60343" lon="1.97272">
        <ele>118.3</ele>
        <time>2021-12-07T09:02:26Z</time>
      </trkpt>
      <trkpt lat="48.60354" lon="1.97296">
        <ele>117.5</ele>
        <time>2021-12-07T09:02:44Z</time>
      </trkpt>
      <trkpt lat="48.60371" lon="1.9731">
        <ele>116.3</ele>
        <time>2021-12-07T09:02:54Z</time>
      </trkpt>
      <trkpt lat="48.60384" lon="1.97329">
        <ele>115.4</ele>
        <time>2021-12-07T09:03:04Z</time>
      </trkpt>
      <trkpt lat="48.60401" lon="1.97343">
        <ele>114.6</ele>
        <time>2021-12-07T09:03:16Z</time>
      </trkpt>
      <trkpt lat="48.60417" lon="1.97356">
        <ele>114</ele>
        <time>2021-12-07T09:03:28Z</time>
      </trkpt>
      <trkpt lat="48.60432" lon="1.97371">
        <ele>114</ele>
        <time>2021-12-07T09:03:39Z</time>
      </trkpt>
      <trkpt lat="48.60447" lon="1.97389">
        <ele>113.9</ele>
        <time>2021-12-07T09:03:51Z</time>
      </trkpt>
      <trkpt lat="48.60462" lon="1.97407">
        <ele>113.4</ele>
        <time>2021-12-07T09:04:03Z</time>
      </trkpt>
      <trkpt lat="48.60477" lon="1.97426">
        <ele>112.8</ele>
        <time>2021-12-07T09:04:14Z</time>
      </trkpt>
      <trkpt lat="48.60493" lon="1.97442">
        <ele>112.2</ele>
        <time>2021-12-07T09:04:28Z</time>
      </trkpt>
      <trkpt lat="48.60511" lon="1.97453">
        <ele>111.6</ele>
        <time>2021-12-07T09:04:39Z</time>
      </trkpt>
      <trkpt lat="48.60529" lon="1.97463">
        <ele>111</ele>
        <time>2021-12-07T09:04:52Z</time>
      </trkpt>
      <trkpt lat="48.60543" lon="1.9748">
        <ele>110.3</ele>
        <time>2021-12-07T09:05:23Z</time>
      </trkpt>
      <trkpt lat="48.60558" lon="1.97497">
        <ele>110</ele>
        <time>2021-12-07T09:05:34Z</time>
      </trkpt>
      <trkpt lat="48.60574" lon="1.97512">
        <ele>109.6</ele>
        <time>2021-12-07T09:05:45Z</time>
      </trkpt>
      <trkpt lat="48.60588" lon="1.9753">
        <ele>109</ele>
        <time>2021-12-07T09:05:58Z</time>
      </trkpt>
      <trkpt lat="48.6058" lon="1.97555">
        <ele>109</ele>
        <time>2021-12-07T09:06:18Z</time>
      </trkpt>
      <trkpt lat="48.60575" lon="1.97583">
        <ele>108.3</ele>
        <time>2021-12-07T09:06:33Z</time>
      </trkpt>
      <trkpt lat="48.60581" lon="1.9761">
        <ele>108.1</ele>
        <time>2021-12-07T09:06:46Z</time>
      </trkpt>
      <trkpt lat="48.6058" lon="1.97638">
        <ele>107.2</ele>
        <time>2021-12-07T09:06:58Z</time>
      </trkpt>
      <trkpt lat="48.60566" lon="1.97657">
        <ele>108.2</ele>
        <time>2021-12-07T09:07:13Z</time>
      </trkpt>
      <trkpt lat="48.60548" lon="1.97661">
        <ele>109.3</ele>
        <time>2021-12-07T09:07:41Z</time>
      </trkpt>
      <trkpt lat="48.60543" lon="1.97687">
        <ele>109.8</ele>
        <time>2021-12-07T09:08:00Z</time>
      </trkpt>
      <trkpt lat="48.6054" lon="1.97715">
        <ele>110.1</ele>
        <time>2021-12-07T09:08:15Z</time>
      </trkpt>
      <trkpt lat="48.6053" lon="1.97738">
        <ele>110.9</ele>
        <time>2021-12-07T09:10:08Z</time>
      </trkpt>
      <trkpt lat="48.6052" lon="1.97762">
        <ele>111.3</ele>
        <time>2021-12-07T09:10:21Z</time>
      </trkpt>
      <trkpt lat="48.60509" lon="1.97785">
        <ele>111.4</ele>
        <time>2021-12-07T09:10:34Z</time>
      </trkpt>
      <trkpt lat="48.60498" lon="1.97809">
        <ele>110.9</ele>
        <time>2021-12-07T09:10:47Z</time>
      </trkpt>
      <trkpt lat="48.60487" lon="1.97833">
        <ele>110.5</ele>
        <time>2021-12-07T09:10:59Z</time>
      </trkpt>
      <trkpt lat="48.60476" lon="1.97857">
        <ele>110.9</ele>
        <time>2021-12-07T09:11:13Z</time>
      </trkpt>
      <trkpt lat="48.60466" lon="1.97881">
        <ele>110.5</ele>
        <time>2021-12-07T09:11:25Z</time>
      </trkpt>
      <trkpt lat="48.60455" lon="1.97905">
        <ele>110.1</ele>
        <time>2021-12-07T09:11:39Z</time>
      </trkpt>
      <trkpt lat="48.60442" lon="1.97927">
        <ele>110.1</ele>
        <time>2021-12-07T09:11:52Z</time>
      </trkpt>
      <trkpt lat="48.60432" lon="1.9795">
        <ele>109.9</ele>
        <time>2021-12-07T09:12:04Z</time>
      </trkpt>
      <trkpt lat="48.6042" lon="1.97974">
        <ele>109.8</ele>
        <time>2021-12-07T09:12:16Z</time>
      </trkpt>
      <trkpt lat="48.60411" lon="1.97997">
        <ele>109.1</ele>
        <time>2021-12-07T09:12:27Z</time>
      </trkpt>
      <trkpt lat="48.604" lon="1.98021">
        <ele>108.7</ele>
        <time>2021-12-07T09:12:40Z</time>
      </trkpt>
      <trkpt lat="48.60389" lon="1.98043">
        <ele>108.5</ele>
        <time>2021-12-07T09:12:52Z</time>
      </trkpt>
      <trkpt lat="48.60379" lon="1.98067">
        <ele>107.6</ele>
        <time>2021-12-07T09:13:06Z</time>
      </trkpt>
      <trkpt lat="48.60367" lon="1.98088">
        <ele>106.8</ele>
        <time>2021-12-07T09:13:17Z</time>
      </trkpt>
      <trkpt lat="48.60357" lon="1.98114">
        <ele>105.9</ele>
        <time>2021-12-07T09:13:29Z</time>
      </trkpt>
      <trkpt lat="48.60348" lon="1.98138">
        <ele>105.9</ele>
        <time>2021-12-07T09:13:40Z</time>
      </trkpt>
      <trkpt lat="48.60357" lon="1.98162">
        <ele>104.7</ele>
        <time>2021-12-07T09:14:10Z</time>
      </trkpt>
      <trkpt lat="48.60371" lon="1.9818">
        <ele>103.5</ele>
        <time>2021-12-07T09:14:27Z</time>
      </trkpt>
      <trkpt lat="48.60386" lon="1.98194">
        <ele>102.2</ele>
        <time>2021-12-07T09:14:40Z</time>
      </trkpt>
      <trkpt lat="48.60401" lon="1.9821">
        <ele>102.2</ele>
        <time>2021-12-07T09:14:52Z</time>
      </trkpt>
      <trkpt lat="48.60417" lon="1.98224">
        <ele>102</ele>
        <time>2021-12-07T09:15:04Z</time>
      </trkpt>
      <trkpt lat="48.60427" lon="1.98248">
        <ele>102</ele>
        <time>2021-12-07T09:15:18Z</time>
      </trkpt>
      <trkpt lat="48.60444" lon="1.98265">
        <ele>101.5</ele>
        <time>2021-12-07T09:15:30Z</time>
      </trkpt>
      <trkpt lat="48.6046" lon="1.9828">
        <ele>101.5</ele>
        <time>2021-12-07T09:15:43Z</time>
      </trkpt>
      <trkpt lat="48.60477" lon="1.98292">
        <ele>101.6</ele>
        <time>2021-12-07T09:15:54Z</time>
      </trkpt>
      <trkpt lat="48.60491" lon="1.9831">
        <ele>101.6</ele>
        <time>2021-12-07T09:16:08Z</time>
      </trkpt>
      <trkpt lat="48.60507" lon="1.98325">
        <ele>101.5</ele>
        <time>2021-12-07T09:16:18Z</time>
      </trkpt>
      <trkpt lat="48.60522" lon="1.98341">
        <ele>101.8</ele>
        <time>2021-12-07T09:16:31Z</time>
      </trkpt>
      <trkpt lat="48.60507" lon="1.98359">
        <ele>101.2</ele>
        <time>2021-12-07T09:17:02Z</time>
      </trkpt>
      <trkpt lat="48.60488" lon="1.98363">
        <ele>100.5</ele>
        <time>2021-12-07T09:17:15Z</time>
      </trkpt>
      <trkpt lat="48.6047" lon="1.98367">
        <ele>100</ele>
        <time>2021-12-07T09:17:28Z</time>
      </trkpt>
      <trkpt lat="48.60451" lon="1.98367">
        <ele>100</ele>
        <time>2021-12-07T09:17:48Z</time>
      </trkpt>
      <trkpt lat="48.60433" lon="1.9837">
        <ele>100.4</ele>
        <time>2021-12-07T09:18:08Z</time>
      </trkpt>
      <trkpt lat="48.60418" lon="1.98387">
        <ele>101</ele>
        <time>2021-12-07T09:18:22Z</time>
      </trkpt>
      <trkpt lat="48.604" lon="1.98395">
        <ele>101.5</ele>
        <time>2021-12-07T09:18:34Z</time>
      </trkpt>
      <trkpt lat="48.60382" lon="1.98401">
        <ele>102.5</ele>
        <time>2021-12-07T09:18:47Z</time>
      </trkpt>
      <trkpt lat="48.60366" lon="1.98413">
        <ele>103.7</ele>
        <time>2021-12-07T09:19:00Z</time>
      </trkpt>
      <trkpt lat="48.60349" lon="1.98426">
        <ele>104.9</ele>
        <time>2021-12-07T09:19:13Z</time>
      </trkpt>
      <trkpt lat="48.60333" lon="1.98443">
        <ele>106</ele>
        <time>2021-12-07T09:19:25Z</time>
      </trkpt>
      <trkpt lat="48.60317" lon="1.98458">
        <ele>106.1</ele>
        <time>2021-12-07T09:19:36Z</time>
      </trkpt>
      <trkpt lat="48.60302" lon="1.98477">
        <ele>105.8</ele>
        <time>2021-12-07T09:19:49Z</time>
      </trkpt>
      <trkpt lat="48.60292" lon="1.98499">
        <ele>105</ele>
        <time>2021-12-07T09:20:03Z</time>
      </trkpt>
      <trkpt lat="48.6028" lon="1.98521">
        <ele>104.2</ele>
        <time>2021-12-07T09:20:19Z</time>
      </trkpt>
      <trkpt lat="48.60266" lon="1.98538">
        <ele>104.3</ele>
        <time>2021-12-07T09:20:32Z</time>
      </trkpt>
      <trkpt lat="48.6025" lon="1.98554">
        <ele>104.1</ele>
        <time>2021-12-07T09:20:49Z</time>
      </trkpt>
      <trkpt lat="48.60234" lon="1.98569">
        <ele>104.6</ele>
        <time>2021-12-07T09:21:01Z</time>
      </trkpt>
      <trkpt lat="48.60219" lon="1.98589">
        <ele>105.1</ele>
        <time>2021-12-07T09:21:13Z</time>
      </trkpt>
      <trkpt lat="48.60204" lon="1.98606">
        <ele>106.2</ele>
        <time>2021-12-07T09:21:23Z</time>
      </trkpt>
      <trkpt lat="48.60188" lon="1.98623">
        <ele>107.2</ele>
        <time>2021-12-07T09:21:35Z</time>
      </trkpt>
      <trkpt lat="48.60172" lon="1.9864">
        <ele>107.8</ele>
        <time>2021-12-07T09:21:46Z</time>
      </trkpt>
      <trkpt lat="48.60156" lon="1.98653">
        <ele>108.4</ele>
        <time>2021-12-07T09:21:59Z</time>
      </trkpt>
      <trkpt lat="48.60141" lon="1.98669">
        <ele>108.8</ele>
        <time>2021-12-07T09:22:11Z</time>
      </trkpt>
      <trkpt lat="48.60126" lon="1.98683">
        <ele>108.9</ele>
        <time>2021-12-07T09:22:26Z</time>
      </trkpt>
      <trkpt lat="48.60117" lon="1.98707">
        <ele>108.4</ele>
        <time>2021-12-07T09:24:04Z</time>
      </trkpt>
      <trkpt lat="48.60099" lon="1.98704">
        <ele>108.6</ele>
        <time>2021-12-07T09:26:08Z</time>
      </trkpt>
      <trkpt lat="48.60082" lon="1.98717">
        <ele>108.1</ele>
        <time>2021-12-07T09:26:20Z</time>
      </trkpt>
      <trkpt lat="48.60066" lon="1.9873">
        <ele>107.3</ele>
        <time>2021-12-07T09:26:30Z</time>
      </trkpt>
      <trkpt lat="48.60048" lon="1.98741">
        <ele>106.8</ele>
        <time>2021-12-07T09:26:41Z</time>
      </trkpt>
      <trkpt lat="48.6003" lon="1.98748">
        <ele>106.1</ele>
        <time>2021-12-07T09:26:53Z</time>
      </trkpt>
      <trkpt lat="48.60012" lon="1.98751">
        <ele>105.4</ele>
        <time>2021-12-07T09:27:06Z</time>
      </trkpt>
      <trkpt lat="48.59993" lon="1.98756">
        <ele>105.2</ele>
        <time>2021-12-07T09:27:20Z</time>
      </trkpt>
      <trkpt lat="48.59975" lon="1.98759">
        <ele>105.6</ele>
        <time>2021-12-07T09:27:34Z</time>
      </trkpt>
      <trkpt lat="48.59956" lon="1.98766">
        <ele>105.8</ele>
        <time>2021-12-07T09:27:48Z</time>
      </trkpt>
      <trkpt lat="48.59937" lon="1.98769">
        <ele>106.3</ele>
        <time>2021-12-07T09:28:00Z</time>
      </trkpt>
      <trkpt lat="48.59919" lon="1.98775">
        <ele>107</ele>
        <time>2021-12-07T09:28:12Z</time>
      </trkpt>
      <trkpt lat="48.59902" lon="1.9878">
        <ele>108.5</ele>
        <time>2021-12-07T09:28:23Z</time>
      </trkpt>
      <trkpt lat="48.59883" lon="1.98785">
        <ele>110.3</ele>
        <time>2021-12-07T09:28:35Z</time>
      </trkpt>
      <trkpt lat="48.59865" lon="1.98791">
        <ele>111.7</ele>
        <time>2021-12-07T09:28:47Z</time>
      </trkpt>
      <trkpt lat="48.59847" lon="1.98797">
        <ele>112.2</ele>
        <time>2021-12-07T09:28:58Z</time>
      </trkpt>
      <trkpt lat="48.59829" lon="1.98796">
        <ele>113.1</ele>
        <time>2021-12-07T09:29:12Z</time>
      </trkpt>
      <trkpt lat="48.5981" lon="1.98797">
        <ele>113.5</ele>
        <time>2021-12-07T09:29:24Z</time>
      </trkpt>
      <trkpt lat="48.59791" lon="1.98795">
        <ele>114.3</ele>
        <time>2021-12-07T09:29:38Z</time>
      </trkpt>
      <trkpt lat="48.59773" lon="1.98794">
        <ele>115</ele>
        <time>2021-12-07T09:29:52Z</time>
      </trkpt>
      <trkpt lat="48.59754" lon="1.98798">
        <ele>115.1</ele>
        <time>2021-12-07T09:30:04Z</time>
      </trkpt>
      <trkpt lat="48.59735" lon="1.98795">
        <ele>115.9</ele>
        <time>2021-12-07T09:30:19Z</time>
      </trkpt>
      <trkpt lat="48.59716" lon="1.98796">
        <ele>116.7</ele>
        <time>2021-12-07T09:30:32Z</time>
      </trkpt>
      <trkpt lat="48.59697" lon="1.98794">
        <ele>117.9</ele>
        <time>2021-12-07T09:30:46Z</time>
      </trkpt>
      <trkpt lat="48.59678" lon="1.98793">
        <ele>118.9</ele>
        <time>2021-12-07T09:30:59Z</time>
      </trkpt>
      <trkpt lat="48.59659" lon="1.98793">
        <ele>120.1</ele>
        <time>2021-12-07T09:31:13Z</time>
      </trkpt>
      <trkpt lat="48.5964" lon="1.98792">
        <ele>121.4</ele>
        <time>2021-12-07T09:31:25Z</time>
      </trkpt>
      <trkpt lat="48.59622" lon="1.98795">
        <ele>122.8</ele>
        <time>2021-12-07T09:31:37Z</time>
      </trkpt>
      <trkpt lat="48.59603" lon="1.98797">
        <ele>123.9</ele>
        <time>2021-12-07T09:31:48Z</time>
      </trkpt>
      <trkpt lat="48.59585" lon="1.98799">
        <ele>124.5</ele>
        <time>2021-12-07T09:32:00Z</time>
      </trkpt>
      <trkpt lat="48.59566" lon="1.98802">
        <ele>124.2</ele>
        <time>2021-12-07T09:32:13Z</time>
      </trkpt>
      <trkpt lat="48.59562" lon="1.98774">
        <ele>123</ele>
        <time>2021-12-07T09:34:30Z</time>
      </trkpt>
      <trkpt lat="48.59581" lon="1.98767">
        <ele>123</ele>
        <time>2021-12-07T09:34:43Z</time>
      </trkpt>
      <trkpt lat="48.59597" lon="1.98752">
        <ele>122.6</ele>
        <time>2021-12-07T09:34:58Z</time>
      </trkpt>
      <trkpt lat="48.5961" lon="1.98732">
        <ele>122.7</ele>
        <time>2021-12-07T09:35:13Z</time>
      </trkpt>
      <trkpt lat="48.59624" lon="1.98714">
        <ele>123.5</ele>
        <time>2021-12-07T09:35:28Z</time>
      </trkpt>
      <trkpt lat="48.59637" lon="1.98694">
        <ele>124.1</ele>
        <time>2021-12-07T09:35:44Z</time>
      </trkpt>
      <trkpt lat="48.59655" lon="1.98701">
        <ele>123.6</ele>
        <time>2021-12-07T09:35:57Z</time>
      </trkpt>
      <trkpt lat="48.59671" lon="1.98691">
        <ele>124.6</ele>
        <time>2021-12-07T09:36:08Z</time>
      </trkpt>
      <trkpt lat="48.59685" lon="1.98672">
        <ele>127.1</ele>
        <time>2021-12-07T09:36:20Z</time>
      </trkpt>
      <trkpt lat="48.59696" lon="1.98648">
        <ele>131.3</ele>
        <time>2021-12-07T09:36:33Z</time>
      </trkpt>
      <trkpt lat="48.59698" lon="1.9862">
        <ele>135.9</ele>
        <time>2021-12-07T09:36:47Z</time>
      </trkpt>
      <trkpt lat="48.597" lon="1.98592">
        <ele>140.1</ele>
        <time>2021-12-07T09:37:06Z</time>
      </trkpt>
      <trkpt lat="48.597" lon="1.98564">
        <ele>143.3</ele>
        <time>2021-12-07T09:37:27Z</time>
      </trkpt>
      <trkpt lat="48.59698" lon="1.98536">
        <ele>145.4</ele>
        <time>2021-12-07T09:37:50Z</time>
      </trkpt>
      <trkpt lat="48.59696" lon="1.98509">
        <ele>146.6</ele>
        <time>2021-12-07T09:38:09Z</time>
      </trkpt>
      <trkpt lat="48.59695" lon="1.98481">
        <ele>147</ele>
        <time>2021-12-07T09:38:26Z</time>
      </trkpt>
      <trkpt lat="48.59694" lon="1.98453">
        <ele>147</ele>
        <time>2021-12-07T09:38:41Z</time>
      </trkpt>
      <trkpt lat="48.59693" lon="1.98425">
        <ele>146.3</ele>
        <time>2021-12-07T09:38:57Z</time>
      </trkpt>
      <trkpt lat="48.59687" lon="1.98398">
        <ele>145.3</ele>
        <time>2021-12-07T09:39:11Z</time>
      </trkpt>
      <trkpt lat="48.59676" lon="1.98376">
        <ele>144.9</ele>
        <time>2021-12-07T09:39:25Z</time>
      </trkpt>
      <trkpt lat="48.59664" lon="1.98354">
        <ele>144.7</ele>
        <time>2021-12-07T09:39:38Z</time>
      </trkpt>
      <trkpt lat="48.59657" lon="1.98327">
        <ele>143.8</ele>
        <time>2021-12-07T09:39:54Z</time>
      </trkpt>
      <trkpt lat="48.59647" lon="1.98303">
        <ele>144.4</ele>
        <time>2021-12-07T09:40:05Z</time>
      </trkpt>
      <trkpt lat="48.59636" lon="1.98282">
        <ele>145.5</ele>
        <time>2021-12-07T09:40:17Z</time>
      </trkpt>
      <trkpt lat="48.59622" lon="1.98261">
        <ele>147.4</ele>
        <time>2021-12-07T09:40:30Z</time>
      </trkpt>
      <trkpt lat="48.59611" lon="1.98239">
        <ele>149.4</ele>
        <time>2021-12-07T09:40:44Z</time>
      </trkpt>
      <trkpt lat="48.59596" lon="1.98221">
        <ele>150.6</ele>
        <time>2021-12-07T09:40:58Z</time>
      </trkpt>
      <trkpt lat="48.59581" lon="1.98203">
        <ele>151.7</ele>
        <time>2021-12-07T09:41:12Z</time>
      </trkpt>
      <trkpt lat="48.59569" lon="1.98183">
        <ele>152.4</ele>
        <time>2021-12-07T09:41:25Z</time>
      </trkpt>
      <trkpt lat="48.59561" lon="1.98158">
        <ele>153.3</ele>
        <time>2021-12-07T09:41:42Z</time>
      </trkpt>
      <trkpt lat="48.5955" lon="1.98135">
        <ele>154</ele>
        <time>2021-12-07T09:41:56Z</time>
      </trkpt>
      <trkpt lat="48.5954" lon="1.98112">
        <ele>155</ele>
        <time>2021-12-07T09:42:08Z</time>
      </trkpt>
      <trkpt lat="48.59535" lon="1.98085">
        <ele>156.6</ele>
        <time>2021-12-07T09:42:19Z</time>
      </trkpt>
      <trkpt lat="48.59531" lon="1.98058">
        <ele>156.9</ele>
        <time>2021-12-07T09:42:31Z</time>
      </trkpt>
      <trkpt lat="48.59529" lon="1.98031">
        <ele>157</ele>
        <time>2021-12-07T09:42:43Z</time>
      </trkpt>
      <trkpt lat="48.59522" lon="1.98006">
        <ele>157.8</ele>
        <time>2021-12-07T09:44:18Z</time>
      </trkpt>
      <trkpt lat="48.59506" lon="1.97993">
        <ele>158.2</ele>
        <time>2021-12-07T09:44:31Z</time>
      </trkpt>
      <trkpt lat="48.59489" lon="1.98002">
        <ele>158.4</ele>
        <time>2021-12-07T09:44:45Z</time>
      </trkpt>
      <trkpt lat="48.59473" lon="1.98018">
        <ele>159</ele>
        <time>2021-12-07T09:44:58Z</time>
      </trkpt>
      <trkpt lat="48.59458" lon="1.98036">
        <ele>158.7</ele>
        <time>2021-12-07T09:45:11Z</time>
      </trkpt>
      <trkpt lat="48.59443" lon="1.98053">
        <ele>158.1</ele>
        <time>2021-12-07T09:45:23Z</time>
      </trkpt>
      <trkpt lat="48.59431" lon="1.98073">
        <ele>157.1</ele>
        <time>2021-12-07T09:45:33Z</time>
      </trkpt>
      <trkpt lat="48.59416" lon="1.9809">
        <ele>155.5</ele>
        <time>2021-12-07T09:45:45Z</time>
      </trkpt>
      <trkpt lat="48.59397" lon="1.98085">
        <ele>155.9</ele>
        <time>2021-12-07T09:45:59Z</time>
      </trkpt>
      <trkpt lat="48.59382" lon="1.98071">
        <ele>155.9</ele>
        <time>2021-12-07T09:46:13Z</time>
      </trkpt>
      <trkpt lat="48.59367" lon="1.98051">
        <ele>156.5</ele>
        <time>2021-12-07T09:46:26Z</time>
      </trkpt>
      <trkpt lat="48.59358" lon="1.98028">
        <ele>157.6</ele>
        <time>2021-12-07T09:46:39Z</time>
      </trkpt>
      <trkpt lat="48.59363" lon="1.98">
        <ele>158.1</ele>
        <time>2021-12-07T09:46:55Z</time>
      </trkpt>
      <trkpt lat="48.5937" lon="1.97974">
        <ele>158.3</ele>
        <time>2021-12-07T09:47:09Z</time>
      </trkpt>
      <trkpt lat="48.59375" lon="1.97946">
        <ele>158</ele>
        <time>2021-12-07T09:47:23Z</time>
      </trkpt>
      <trkpt lat="48.59374" lon="1.97918">
        <ele>157.4</ele>
        <time>2021-12-07T09:47:33Z</time>
      </trkpt>
      <trkpt lat="48.59368" lon="1.97892">
        <ele>157.4</ele>
        <time>2021-12-07T09:47:43Z</time>
      </trkpt>
      <trkpt lat="48.59361" lon="1.97866">
        <ele>157</ele>
        <time>2021-12-07T09:47:55Z</time>
      </trkpt>
      <trkpt lat="48.59353" lon="1.97841">
        <ele>156.2</ele>
        <time>2021-12-07T09:48:08Z</time>
      </trkpt>
      <trkpt lat="48.59346" lon="1.97814">
        <ele>156.3</ele>
        <time>2021-12-07T09:48:21Z</time>
      </trkpt>
      <trkpt lat="48.59344" lon="1.97785">
        <ele>156.4</ele>
        <time>2021-12-07T09:48:34Z</time>
      </trkpt>
      <trkpt lat="48.59352" lon="1.97759">
        <ele>156.7</ele>
        <time>2021-12-07T09:48:50Z</time>
      </trkpt>
      <trkpt lat="48.5936" lon="1.97733">
        <ele>157</ele>
        <time>2021-12-07T09:49:04Z</time>
      </trkpt>
      <trkpt lat="48.59377" lon="1.97723">
        <ele>157</ele>
        <time>2021-12-07T09:49:22Z</time>
      </trkpt>
      <trkpt lat="48.59394" lon="1.97737">
        <ele>157.4</ele>
        <time>2021-12-07T09:49:40Z</time>
      </trkpt>
      <trkpt lat="48.59412" lon="1.97745">
        <ele>157</ele>
        <time>2021-12-07T09:49:54Z</time>
      </trkpt>
      <trkpt lat="48.5943" lon="1.97746">
        <ele>156.3</ele>
        <time>2021-12-07T09:50:06Z</time>
      </trkpt>
      <trkpt lat="48.59435" lon="1.97718">
        <ele>154.4</ele>
        <time>2021-12-07T09:52:59Z</time>
      </trkpt>
      <trkpt lat="48.5943" lon="1.97692">
        <ele>152.8</ele>
        <time>2021-12-07T09:53:13Z</time>
      </trkpt>
      <trkpt lat="48.59431" lon="1.97664">
        <ele>150.2</ele>
        <time>2021-12-07T09:53:27Z</time>
      </trkpt>
      <trkpt lat="48.59433" lon="1.97635">
        <ele>148.1</ele>
        <time>2021-12-07T09:53:41Z</time>
      </trkpt>
      <trkpt lat="48.5944" lon="1.97608">
        <ele>146.2</ele>
        <time>2021-12-07T09:53:55Z</time>
      </trkpt>
      <trkpt lat="48.59448" lon="1.97582">
        <ele>144.7</ele>
        <time>2021-12-07T09:54:07Z</time>
      </trkpt>
      <trkpt lat="48.59458" lon="1.97558">
        <ele>143.1</ele>
        <time>2021-12-07T09:54:20Z</time>
      </trkpt>
      <trkpt lat="48.59469" lon="1.97535">
        <ele>141.4</ele>
        <time>2021-12-07T09:54:34Z</time>
      </trkpt>
      <trkpt lat="48.59475" lon="1.97509">
        <ele>140.8</ele>
        <time>2021-12-07T09:54:46Z</time>
      </trkpt>
      <trkpt lat="48.59471" lon="1.97481">
        <ele>140.3</ele>
        <time>2021-12-07T09:55:00Z</time>
      </trkpt>
      <trkpt lat="48.59474" lon="1.97453">
        <ele>138.6</ele>
        <time>2021-12-07T09:55:13Z</time>
      </trkpt>
      <trkpt lat="48.59478" lon="1.97426">
        <ele>138</ele>
        <time>2021-12-07T09:55:27Z</time>
      </trkpt>
      <trkpt lat="48.59474" lon="1.97399">
        <ele>138</ele>
        <time>2021-12-07T09:55:50Z</time>
      </trkpt>
      <trkpt lat="48.5947" lon="1.97372">
        <ele>139.1</ele>
        <time>2021-12-07T09:56:03Z</time>
      </trkpt>
      <trkpt lat="48.59462" lon="1.97343">
        <ele>141.1</ele>
        <time>2021-12-07T09:56:12Z</time>
      </trkpt>
      <trkpt lat="48.59459" lon="1.97315">
        <ele>144.7</ele>
        <time>2021-12-07T09:56:21Z</time>
      </trkpt>
      <trkpt lat="48.5945" lon="1.97289">
        <ele>148.1</ele>
        <time>2021-12-07T09:56:33Z</time>
      </trkpt>
      <trkpt lat="48.59436" lon="1.97271">
        <ele>150.4</ele>
        <time>2021-12-07T09:56:45Z</time>
      </trkpt>
      <trkpt lat="48.59425" lon="1.97249">
        <ele>152.7</ele>
        <time>2021-12-07T09:57:03Z</time>
      </trkpt>
      <trkpt lat="48.59428" lon="1.97221">
        <ele>155.5</ele>
        <time>2021-12-07T09:57:17Z</time>
      </trkpt>
      <trkpt lat="48.59438" lon="1.97198">
        <ele>157.3</ele>
        <time>2021-12-07T09:57:30Z</time>
      </trkpt>
      <trkpt lat="48.5944" lon="1.9717">
        <ele>157.8</ele>
        <time>2021-12-07T09:57:42Z</time>
      </trkpt>
      <trkpt lat="48.59433" lon="1.97145">
        <ele>158.4</ele>
        <time>2021-12-07T09:57:55Z</time>
      </trkpt>
      <trkpt lat="48.59435" lon="1.97117">
        <ele>158.1</ele>
        <time>2021-12-07T09:58:07Z</time>
      </trkpt>
      <trkpt lat="48.59434" lon="1.97089">
        <ele>158</ele>
        <time>2021-12-07T09:58:19Z</time>
      </trkpt>
      <trkpt lat="48.59427" lon="1.97062">
        <ele>157.7</ele>
        <time>2021-12-07T09:58:32Z</time>
      </trkpt>
      <trkpt lat="48.5942" lon="1.97036">
        <ele>157.2</ele>
        <time>2021-12-07T09:58:44Z</time>
      </trkpt>
      <trkpt lat="48.59419" lon="1.97008">
        <ele>156.8</ele>
        <time>2021-12-07T09:58:56Z</time>
      </trkpt>
      <trkpt lat="48.59422" lon="1.96979">
        <ele>156.6</ele>
        <time>2021-12-07T09:59:08Z</time>
      </trkpt>
      <trkpt lat="48.59414" lon="1.96954">
        <ele>156.8</ele>
        <time>2021-12-07T09:59:25Z</time>
      </trkpt>
      <trkpt lat="48.59407" lon="1.96928">
        <ele>155.9</ele>
        <time>2021-12-07T09:59:40Z</time>
      </trkpt>
      <trkpt lat="48.59405" lon="1.969">
        <ele>155.6</ele>
        <time>2021-12-07T09:59:56Z</time>
      </trkpt>
      <trkpt lat="48.59411" lon="1.96873">
        <ele>155.7</ele>
        <time>2021-12-07T10:02:30Z</time>
      </trkpt>
      <trkpt lat="48.59425" lon="1.96855">
        <ele>154.8</ele>
        <time>2021-12-07T10:02:44Z</time>
      </trkpt>
      <trkpt lat="48.59443" lon="1.96845">
        <ele>153.1</ele>
        <time>2021-12-07T10:02:58Z</time>
      </trkpt>
      <trkpt lat="48.59442" lon="1.96817">
        <ele>151.9</ele>
        <time>2021-12-07T10:03:12Z</time>
      </trkpt>
      <trkpt lat="48.59434" lon="1.96791">
        <ele>150.1</ele>
        <time>2021-12-07T10:03:27Z</time>
      </trkpt>
      <trkpt lat="48.59423" lon="1.96767">
        <ele>148.3</ele>
        <time>2021-12-07T10:03:41Z</time>
      </trkpt>
      <trkpt lat="48.59415" lon="1.96743">
        <ele>146.4</ele>
        <time>2021-12-07T10:03:54Z</time>
      </trkpt>
      <trkpt lat="48.59415" lon="1.96713">
        <ele>144.6</ele>
        <time>2021-12-07T10:04:07Z</time>
      </trkpt>
      <trkpt lat="48.59408" lon="1.96687">
        <ele>143.1</ele>
        <time>2021-12-07T10:04:20Z</time>
      </trkpt>
      <trkpt lat="48.59415" lon="1.96661">
        <ele>142.7</ele>
        <time>2021-12-07T10:04:34Z</time>
      </trkpt>
      <trkpt lat="48.59428" lon="1.9664">
        <ele>142.4</ele>
        <time>2021-12-07T10:04:47Z</time>
      </trkpt>
      <trkpt lat="48.59437" lon="1.96615">
        <ele>142.5</ele>
        <time>2021-12-07T10:05:00Z</time>
      </trkpt>
      <trkpt lat="48.59447" lon="1.96592">
        <ele>142.5</ele>
        <time>2021-12-07T10:05:12Z</time>
      </trkpt>
      <trkpt lat="48.5946" lon="1.9657">
        <ele>142.6</ele>
        <time>2021-12-07T10:05:25Z</time>
      </trkpt>
      <trkpt lat="48.5947" lon="1.96547">
        <ele>142.8</ele>
        <time>2021-12-07T10:05:37Z</time>
      </trkpt>
      <trkpt lat="48.5948" lon="1.96522">
        <ele>144.1</ele>
        <time>2021-12-07T10:05:51Z</time>
      </trkpt>
      <trkpt lat="48.5949" lon="1.96498">
        <ele>146.2</ele>
        <time>2021-12-07T10:06:03Z</time>
      </trkpt>
      <trkpt lat="48.595" lon="1.96473">
        <ele>147.9</ele>
        <time>2021-12-07T10:06:16Z</time>
      </trkpt>
      <trkpt lat="48.59514" lon="1.96455">
        <ele>149.6</ele>
        <time>2021-12-07T10:06:30Z</time>
      </trkpt>
      <trkpt lat="48.59522" lon="1.96429">
        <ele>150.5</ele>
        <time>2021-12-07T10:06:44Z</time>
      </trkpt>
      <trkpt lat="48.59534" lon="1.96408">
        <ele>152</ele>
        <time>2021-12-07T10:06:58Z</time>
      </trkpt>
      <trkpt lat="48.59546" lon="1.96386">
        <ele>153.5</ele>
        <time>2021-12-07T10:07:12Z</time>
      </trkpt>
      <trkpt lat="48.59556" lon="1.96361">
        <ele>155</ele>
        <time>2021-12-07T10:07:23Z</time>
      </trkpt>
      <trkpt lat="48.59568" lon="1.96339">
        <ele>155.1</ele>
        <time>2021-12-07T10:07:34Z</time>
      </trkpt>
      <trkpt lat="48.59577" lon="1.96316">
        <ele>154.9</ele>
        <time>2021-12-07T10:07:46Z</time>
      </trkpt>
      <trkpt lat="48.59588" lon="1.96294">
        <ele>154.3</ele>
        <time>2021-12-07T10:08:01Z</time>
      </trkpt>
      <trkpt lat="48.59599" lon="1.9627">
        <ele>152.6</ele>
        <time>2021-12-07T10:08:43Z</time>
      </trkpt>
      <trkpt lat="48.59612" lon="1.96251">
        <ele>151.2</ele>
        <time>2021-12-07T10:09:00Z</time>
      </trkpt>
      <trkpt lat="48.5962" lon="1.96226">
        <ele>147.9</ele>
        <time>2021-12-07T10:09:16Z</time>
      </trkpt>
      <trkpt lat="48.59632" lon="1.96202">
        <ele>144.9</ele>
        <time>2021-12-07T10:09:30Z</time>
      </trkpt>
      <trkpt lat="48.59644" lon="1.96183">
        <ele>142.4</ele>
        <time>2021-12-07T10:09:46Z</time>
      </trkpt>
      <trkpt lat="48.59657" lon="1.96163">
        <ele>140.3</ele>
        <time>2021-12-07T10:10:01Z</time>
      </trkpt>
      <trkpt lat="48.5967" lon="1.96141">
        <ele>138.3</ele>
        <time>2021-12-07T10:10:15Z</time>
      </trkpt>
      <trkpt lat="48.59681" lon="1.96118">
        <ele>136.5</ele>
        <time>2021-12-07T10:10:28Z</time>
      </trkpt>
      <trkpt lat="48.59693" lon="1.96098">
        <ele>135.1</ele>
        <time>2021-12-07T10:10:43Z</time>
      </trkpt>
      <trkpt lat="48.59703" lon="1.96076">
        <ele>132.9</ele>
        <time>2021-12-07T10:10:55Z</time>
      </trkpt>
      <trkpt lat="48.59715" lon="1.96053">
        <ele>130.9</ele>
        <time>2021-12-07T10:11:08Z</time>
      </trkpt>
      <trkpt lat="48.59726" lon="1.9603">
        <ele>130.2</ele>
        <time>2021-12-07T10:11:22Z</time>
      </trkpt>
      <trkpt lat="48.59738" lon="1.96006">
        <ele>129.8</ele>
        <time>2021-12-07T10:11:37Z</time>
      </trkpt>
      <trkpt lat="48.59746" lon="1.95981">
        <ele>129.2</ele>
        <time>2021-12-07T10:11:47Z</time>
      </trkpt>
      <trkpt lat="48.59758" lon="1.95959">
        <ele>128.7</ele>
        <time>2021-12-07T10:12:01Z</time>
      </trkpt>
      <trkpt lat="48.59768" lon="1.95934">
        <ele>127.5</ele>
        <time>2021-12-07T10:12:13Z</time>
      </trkpt>
      <trkpt lat="48.59779" lon="1.95913">
        <ele>126.9</ele>
        <time>2021-12-07T10:12:25Z</time>
      </trkpt>
      <trkpt lat="48.59787" lon="1.95888">
        <ele>126.3</ele>
        <time>2021-12-07T10:12:35Z</time>
      </trkpt>
      <trkpt lat="48.59797" lon="1.95865">
        <ele>125.2</ele>
        <time>2021-12-07T10:12:46Z</time>
      </trkpt>
      <trkpt lat="48.59807" lon="1.95841">
        <ele>124.3</ele>
        <time>2021-12-07T10:12:56Z</time>
      </trkpt>
      <trkpt lat="48.59818" lon="1.95817">
        <ele>123.9</ele>
        <time>2021-12-07T10:13:08Z</time>
      </trkpt>
      <trkpt lat="48.59831" lon="1.95796">
        <ele>123.6</ele>
        <time>2021-12-07T10:13:23Z</time>
      </trkpt>
      <trkpt lat="48.59843" lon="1.95775">
        <ele>123.3</ele>
        <time>2021-12-07T10:13:36Z</time>
      </trkpt>
      <trkpt lat="48.59851" lon="1.9575">
        <ele>123</ele>
        <time>2021-12-07T10:13:47Z</time>
      </trkpt>
      <trkpt lat="48.59863" lon="1.95729">
        <ele>123.1</ele>
        <time>2021-12-07T10:14:01Z</time>
      </trkpt>
      <trkpt lat="48.59865" lon="1.95701">
        <ele>122.4</ele>
        <time>2021-12-07T10:14:15Z</time>
      </trkpt>
      <trkpt lat="48.59874" lon="1.95675">
        <ele>122.1</ele>
        <time>2021-12-07T10:15:29Z</time>
      </trkpt>
      <trkpt lat="48.59888" lon="1.95655">
        <ele>122.5</ele>
        <time>2021-12-07T10:15:45Z</time>
      </trkpt>
      <trkpt lat="48.59901" lon="1.95636">
        <ele>122.3</ele>
        <time>2021-12-07T10:15:58Z</time>
      </trkpt>
      <trkpt lat="48.59913" lon="1.95614">
        <ele>122</ele>
        <time>2021-12-07T10:16:12Z</time>
      </trkpt>
      <trkpt lat="48.59923" lon="1.95591">
        <ele>121.3</ele>
        <time>2021-12-07T10:16:25Z</time>
      </trkpt>
      <trkpt lat="48.59936" lon="1.95571">
        <ele>120.9</ele>
        <time>2021-12-07T10:16:39Z</time>
      </trkpt>
      <trkpt lat="48.59946" lon="1.95548">
        <ele>120.7</ele>
        <time>2021-12-07T10:16:49Z</time>
      </trkpt>
      <trkpt lat="48.59955" lon="1.95523">
        <ele>119.1</ele>
        <time>2021-12-07T10:16:59Z</time>
      </trkpt>
      <trkpt lat="48.59967" lon="1.95502">
        <ele>117.5</ele>
        <time>2021-12-07T10:17:12Z</time>
      </trkpt>
      <trkpt lat="48.59978" lon="1.9548">
        <ele>116</ele>
        <time>2021-12-07T10:17:25Z</time>
      </trkpt>
      <trkpt lat="48.59991" lon="1.95459">
        <ele>114.8</ele>
        <time>2021-12-07T10:17:38Z</time>
      </trkpt>
      <trkpt lat="48.60002" lon="1.95437">
        <ele>114</ele>
        <time>2021-12-07T10:17:54Z</time>
      </trkpt>
      <trkpt lat="48.60013" lon="1.95413">
        <ele>114</ele>
        <time>2021-12-07T10:18:07Z</time>
      </trkpt>
      <trkpt lat="48.60024" lon="1.95391">
        <ele>114</ele>
        <time>2021-12-07T10:18:21Z</time>
      </trkpt>
      <trkpt lat="48.60035" lon="1.95368">
        <ele>113.2</ele>
        <time>2021-12-07T10:18:35Z</time>
      </trkpt>
      <trkpt lat="48.60048" lon="1.95346">
        <ele>113</ele>
        <time>2021-12-07T10:18:49Z</time>
      </trkpt>
      <trkpt lat="48.60061" lon="1.95326">
        <ele>112.9</ele>
        <time>2021-12-07T10:18:59Z</time>
      </trkpt>
      <trkpt lat="48.6007" lon="1.95302">
        <ele>112.6</ele>
        <time>2021-12-07T10:19:09Z</time>
      </trkpt>
      <trkpt lat="48.60085" lon="1.95288">
        <ele>112.6</ele>
        <time>2021-12-07T10:19:55Z</time>
      </trkpt>
      <trkpt lat="48.60099" lon="1.95308">
        <ele>112</ele>
        <time>2021-12-07T10:20:12Z</time>
      </trkpt>
      <trkpt lat="48.60113" lon="1.95325">
        <ele>112</ele>
        <time>2021-12-07T10:20:28Z</time>
      </trkpt>
      <trkpt lat="48.60125" lon="1.95346">
        <ele>112.5</ele>
        <time>2021-12-07T10:20:44Z</time>
      </trkpt>
      <trkpt lat="48.60139" lon="1.95364">
        <ele>113.1</ele>
        <time>2021-12-07T10:21:02Z</time>
      </trkpt>
      <trkpt lat="48.60154" lon="1.95382">
        <ele>113.3</ele>
        <time>2021-12-07T10:21:15Z</time>
      </trkpt>
      <trkpt lat="48.60169" lon="1.95399">
        <ele>113.3</ele>
        <time>2021-12-07T10:21:28Z</time>
      </trkpt>
      <trkpt lat="48.60182" lon="1.95419">
        <ele>113.4</ele>
        <time>2021-12-07T10:21:43Z</time>
      </trkpt>
      <trkpt lat="48.60198" lon="1.95435">
        <ele>112.9</ele>
        <time>2021-12-07T10:21:55Z</time>
      </trkpt>
      <trkpt lat="48.60215" lon="1.95451">
        <ele>112.3</ele>
        <time>2021-12-07T10:22:08Z</time>
      </trkpt>
      <trkpt lat="48.60231" lon="1.95466">
        <ele>112</ele>
        <time>2021-12-07T10:22:18Z</time>
      </trkpt>
      <trkpt lat="48.60242" lon="1.95489">
        <ele>112</ele>
        <time>2021-12-07T10:22:31Z</time>
      </trkpt>
      <trkpt lat="48.6026" lon="1.95499">
        <ele>111.6</ele>
        <time>2021-12-07T10:22:43Z</time>
      </trkpt>
      <trkpt lat="48.60278" lon="1.95511">
        <ele>111</ele>
        <time>2021-12-07T10:22:55Z</time>
      </trkpt>
      <trkpt lat="48.60295" lon="1.95521">
        <ele>111</ele>
        <time>2021-12-07T10:23:07Z</time>
      </trkpt>
      <trkpt lat="48.60307" lon="1.95543">
        <ele>111</ele>
        <time>2021-12-07T10:23:19Z</time>
      </trkpt>
      <trkpt lat="48.6032" lon="1.95561">
        <ele>110.5</ele>
        <time>2021-12-07T10:23:35Z</time>
      </trkpt>
      <trkpt lat="48.60334" lon="1.95579">
        <ele>110</ele>
        <time>2021-12-07T10:23:49Z</time>
      </trkpt>
      <trkpt lat="48.6035" lon="1.95594">
        <ele>110.2</ele>
        <time>2021-12-07T10:24:11Z</time>
      </trkpt>
      <trkpt lat="48.60368" lon="1.95584">
        <ele>110</ele>
        <time>2021-12-07T10:24:40Z</time>
      </trkpt>
      <trkpt lat="48.60383" lon="1.95566">
        <ele>110</ele>
        <time>2021-12-07T10:24:57Z</time>
      </trkpt>
      <trkpt lat="48.60397" lon="1.95547">
        <ele>110</ele>
        <time>2021-12-07T10:25:10Z</time>
      </trkpt>
      <trkpt lat="48.60411" lon="1.9553">
        <ele>110</ele>
        <time>2021-12-07T10:25:25Z</time>
      </trkpt>
      <trkpt lat="48.60423" lon="1.95507">
        <ele>110</ele>
        <time>2021-12-07T10:25:40Z</time>
      </trkpt>
      <trkpt lat="48.60432" lon="1.95481">
        <ele>110</ele>
        <time>2021-12-07T10:25:50Z</time>
      </trkpt>
      <trkpt lat="48.60446" lon="1.95461">
        <ele>110</ele>
        <time>2021-12-07T10:26:05Z</time>
      </trkpt>
      <trkpt lat="48.60459" lon="1.95443">
        <ele>110</ele>
        <time>2021-12-07T10:26:22Z</time>
      </trkpt>
      <trkpt lat="48.60472" lon="1.95422">
        <ele>110</ele>
        <time>2021-12-07T10:26:36Z</time>
      </trkpt>
      <trkpt lat="48.60483" lon="1.954">
        <ele>110</ele>
        <time>2021-12-07T10:26:48Z</time>
      </trkpt>
      <trkpt lat="48.60491" lon="1.95375">
        <ele>110.2</ele>
        <time>2021-12-07T10:27:01Z</time>
      </trkpt>
      <trkpt lat="48.60505" lon="1.95356">
        <ele>110</ele>
        <time>2021-12-07T10:27:16Z</time>
      </trkpt>
      <trkpt lat="48.60513" lon="1.9533">
        <ele>110.1</ele>
        <time>2021-12-07T10:27:27Z</time>
      </trkpt>
      <trkpt lat="48.60525" lon="1.95309">
        <ele>110.9</ele>
        <time>2021-12-07T10:27:41Z</time>
      </trkpt>
      <trkpt lat="48.60533" lon="1.95282">
        <ele>111</ele>
        <time>2021-12-07T10:27:50Z</time>
      </trkpt>
      <trkpt lat="48.60541" lon="1.95255">
        <ele>111</ele>
        <time>2021-12-07T10:28:00Z</time>
      </trkpt>
      <trkpt lat="48.60557" lon="1.95239">
        <ele>111</ele>
        <time>2021-12-07T10:28:16Z</time>
      </trkpt>
      <trkpt lat="48.60568" lon="1.95218">
        <ele>111</ele>
        <time>2021-12-07T10:28:29Z</time>
      </trkpt>
      <trkpt lat="48.60581" lon="1.95197">
        <ele>111</ele>
        <time>2021-12-07T10:28:45Z</time>
      </trkpt>
      <trkpt lat="48.60592" lon="1.95174">
        <ele>111</ele>
        <time>2021-12-07T10:29:04Z</time>
      </trkpt>
      <trkpt lat="48.60607" lon="1.95156">
        <ele>111</ele>
        <time>2021-12-07T10:29:20Z</time>
      </trkpt>
      <trkpt lat="48.6062" lon="1.95136">
        <ele>111</ele>
        <time>2021-12-07T10:29:34Z</time>
      </trkpt>
      <trkpt lat="48.60627" lon="1.95108">
        <ele>111</ele>
        <time>2021-12-07T10:29:47Z</time>
      </trkpt>
      <trkpt lat="48.60631" lon="1.95081">
        <ele>111</ele>
        <time>2021-12-07T10:29:57Z</time>
      </trkpt>
      <trkpt lat="48.60636" lon="1.95054">
        <ele>111</ele>
        <time>2021-12-07T10:30:22Z</time>
      </trkpt>
      <trkpt lat="48.60642" lon="1.95027">
        <ele>111</ele>
        <time>2021-12-07T10:37:19Z</time>
      </trkpt>
      <trkpt lat="48.60655" lon="1.95007">
        <ele>111</ele>
        <time>2021-12-07T10:37:34Z</time>
      </trkpt>
      <trkpt lat="48.60668" lon="1.94987">
        <ele>111</ele>
        <time>2021-12-07T10:37:47Z</time>
      </trkpt>
    </trkseg>
  </trk>
</gpx>